Capitan FAP Pedro Canga Rodriguez Airport


Codes: SPME/TBP
Name: Capitan FAP Pedro Canga Rodriguez Airport
City: Tumbes
Country: Peru
Elevation: 115 ft.
Wikipedia:

Photos at Capitan FAP Pedro Canga Rodriguez Airport


   Photos courtesy of SpottingLog. You can add your own sightings and photos by signing up for a free trial today.



No photos found.

Weather at Capitan FAP Pedro Canga Rodriguez Airport


Time (UTC)DescriptionTempratureWindCloud coverageVisibilityPressureHumidity
25-Jun-2024 15:00Overcast Clouds24°C2 mph, N97%10000m1013hPa73%
25-Jun-2024 18:00Broken Clouds26°C9 mph, NW83%10000m1012hPa69%
25-Jun-2024 21:00Overcast Clouds25°C11 mph, W98%10000m1012hPa71%
26-Jun-2024 00:00Overcast Clouds23°C7 mph, W99%10000m1014hPa75%
26-Jun-2024 03:00Overcast Clouds23°C4 mph, W100%10000m1016hPa77%
26-Jun-2024 06:00Overcast Clouds23°C2 mph, W100%10000m1015hPa75%
26-Jun-2024 09:00Overcast Clouds22°C4 mph, W100%10000m1014hPa76%
26-Jun-2024 12:00Overcast Clouds22°C4 mph, SE100%10000m1014hPa73%
26-Jun-2024 15:00Overcast Clouds26°C2 mph, N97%10000m1015hPa60%
26-Jun-2024 18:00Broken Clouds28°C11 mph, NW55%10000m1012hPa57%
26-Jun-2024 21:00Scattered Clouds26°C11 mph, W30%10000m1010hPa66%
27-Jun-2024 00:00Scattered Clouds23°C7 mph, W43%10000m1013hPa76%
27-Jun-2024 03:00Overcast Clouds23°C4 mph, W99%10000m1014hPa77%
27-Jun-2024 06:00Broken Clouds22°C2 mph, NE77%10000m1013hPa79%
27-Jun-2024 09:00Few Clouds22°C2 mph, NE23%10000m1013hPa82%
27-Jun-2024 12:00Scattered Clouds22°C4 mph, NE35%10000m1013hPa82%
27-Jun-2024 15:00Overcast Clouds25°C7 mph, N91%10000m1014hPa71%
27-Jun-2024 18:00Broken Clouds26°C11 mph, N84%10000m1012hPa68%
27-Jun-2024 21:00Overcast Clouds25°C9 mph, NW86%10000m1010hPa73%
28-Jun-2024 00:00Overcast Clouds23°C4 mph, W92%10000m1012hPa82%
28-Jun-2024 03:00Overcast Clouds23°C4 mph, W100%10000m1014hPa81%
28-Jun-2024 06:00Overcast Clouds22°C2 mph, NW100%10000m1014hPa80%
28-Jun-2024 09:00Overcast Clouds22°C0 mph, NE98%10000m1012hPa80%
28-Jun-2024 12:00Overcast Clouds22°C2 mph, NE92%10000m1013hPa81%
28-Jun-2024 15:00Overcast Clouds25°C7 mph, N85%10000m1014hPa72%
28-Jun-2024 18:00Broken Clouds26°C11 mph, NW74%10000m1013hPa69%
28-Jun-2024 21:00Overcast Clouds25°C7 mph, NW93%10000m1011hPa72%
29-Jun-2024 00:00Overcast Clouds23°C4 mph, W86%10000m1013hPa83%
29-Jun-2024 03:00Overcast Clouds23°C4 mph, W97%10000m1015hPa82%
29-Jun-2024 06:00Overcast Clouds22°C2 mph, NW97%10000m1014hPa81%
29-Jun-2024 09:00Overcast Clouds22°C2 mph, N100%10000m1013hPa81%
29-Jun-2024 12:00Overcast Clouds23°C2 mph, NE100%10000m1014hPa81%
29-Jun-2024 15:00Broken Clouds25°C4 mph, N83%10000m1015hPa74%
29-Jun-2024 18:00Broken Clouds27°C11 mph, NW62%10000m1012hPa67%
29-Jun-2024 21:00Scattered Clouds26°C9 mph, NW25%10000m1011hPa71%
30-Jun-2024 00:00Scattered Clouds23°C7 mph, W43%10000m1012hPa82%
30-Jun-2024 03:00Overcast Clouds24°C4 mph, W100%10000m1014hPa79%
30-Jun-2024 06:00Overcast Clouds23°C2 mph, NW99%10000m1013hPa78%
30-Jun-2024 09:00Overcast Clouds22°C2 mph, NE93%10000m1013hPa81%
30-Jun-2024 12:00Broken Clouds22°C4 mph, E79%10000m1013hPa81%